createdAt,value
2018-11-01T12:25:59.719Z,3.67
2018-11-01T12:30:54.699Z,3.37
2018-11-01T12:35:49.526Z,3.70
2018-11-01T12:40:44.334Z,3.70
2018-11-01T12:45:42.287Z,3.43
2018-11-01T12:50:37.088Z,3.33
2018-11-01T12:55:33.000Z,3.23
2018-11-01T13:00:29.986Z,2.53
2018-11-01T13:05:24.905Z,2.93
2018-11-01T13:10:19.859Z,3.23
2018-11-01T13:15:14.761Z,2.53
2018-11-01T13:20:10.247Z,2.83
2018-11-01T13:25:05.181Z,2.40
2018-11-01T13:29:59.950Z,2.70
2018-11-01T13:34:55.199Z,2.50
2018-11-01T13:39:50.093Z,2.90
2018-11-01T13:44:44.934Z,2.53
2018-11-01T13:49:39.859Z,2.23
2018-11-01T13:54:34.777Z,2.60
2018-11-01T13:59:29.540Z,2.17
2018-11-01T14:04:24.329Z,2.20
2018-11-01T14:09:19.184Z,1.77
2018-11-01T14:14:14.401Z,2.20
2018-11-01T14:19:09.226Z,2.10
2018-11-01T14:24:04.273Z,2.07
2018-11-01T14:28:59.140Z,2.17
2018-11-01T14:33:54.106Z,1.77
2018-11-01T14:38:49.070Z,1.90
2018-11-01T14:43:43.980Z,1.87
2018-11-01T14:48:38.974Z,1.80
2018-11-01T14:53:34.343Z,2.17
2018-11-01T14:58:30.140Z,1.80
2018-11-01T15:03:24.230Z,1.73
2018-11-01T15:08:19.132Z,1.70
2018-11-01T15:13:14.091Z,2.00
2018-11-01T15:18:08.951Z,1.50
2018-11-01T15:23:03.879Z,1.77
2018-11-01T15:27:58.794Z,1.90
2018-11-01T15:32:53.681Z,3.57
2018-11-01T15:37:48.570Z,3.77
2018-11-01T15:42:44.153Z,3.30
2018-11-01T15:47:39.792Z,2.57
2018-11-01T15:52:34.713Z,2.47
2018-11-01T15:57:29.768Z,2.60
2018-11-01T16:02:24.806Z,2.30
2018-11-01T16:07:19.889Z,2.50
2018-11-01T16:12:14.828Z,2.97
2018-11-01T16:17:10.434Z,6.63
2018-11-01T16:22:05.375Z,5.83
2018-11-01T16:27:00.396Z,5.07
2018-11-01T16:31:55.415Z,4.10
2018-11-01T16:36:50.409Z,3.40
2018-11-01T16:41:45.230Z,4.07
2018-11-01T16:46:40.276Z,3.50
2018-11-01T16:51:35.270Z,3.50
2018-11-01T16:56:30.226Z,4.20
2018-11-01T17:01:25.235Z,4.47
2018-11-01T17:06:20.325Z,4.30
2018-11-01T17:11:15.884Z,4.40
2018-11-01T17:16:10.808Z,4.27
2018-11-01T17:21:05.840Z,4.07
2018-11-01T17:26:01.711Z,4.40
2018-11-01T17:30:56.622Z,4.70
2018-11-01T17:35:51.496Z,5.20
2018-11-01T17:40:53.163Z,4.33
2018-11-01T17:45:48.135Z,4.27
2018-11-01T17:50:43.029Z,4.63
2018-11-01T17:55:37.940Z,4.73
2018-11-01T18:00:33.939Z,4.87
2018-11-01T18:05:28.956Z,4.43
2018-11-01T18:10:23.892Z,4.83
2018-11-01T18:15:19.033Z,4.33
2018-11-01T18:20:14.655Z,4.70
2018-11-01T18:25:11.616Z,4.40
2018-11-01T18:30:08.683Z,3.80
2018-11-01T18:35:03.590Z,4.13
2018-11-01T18:39:58.474Z,4.70
2018-11-01T18:44:53.372Z,4.20
2018-11-01T18:49:48.370Z,4.67
2018-11-01T18:54:43.667Z,4.67
2018-11-01T18:59:38.452Z,4.47
2018-11-01T19:04:33.344Z,3.83
2018-11-01T19:09:28.723Z,3.33
2018-11-01T19:14:24.137Z,3.50
2018-11-01T19:19:19.137Z,3.50
2018-11-01T19:24:14.157Z,3.23
2018-11-01T19:29:09.326Z,3.23
2018-11-01T19:34:04.581Z,3.37
2018-11-01T19:38:59.563Z,3.83
2018-11-01T19:43:54.520Z,2.80
2018-11-01T19:48:49.486Z,2.40
2018-11-01T19:53:44.415Z,2.57
2018-11-01T19:58:39.398Z,2.57
2018-11-01T20:03:34.522Z,2.57
2018-11-01T20:08:29.888Z,2.90
2018-11-01T20:13:25.083Z,3.17
2018-11-01T20:18:19.996Z,3.50
2018-11-01T20:23:15.422Z,3.03
2018-11-01T20:28:10.404Z,3.60
2018-11-01T20:33:05.475Z,2.83
2018-11-01T20:38:00.721Z,2.90
2018-11-01T20:42:55.555Z,3.13
2018-11-01T20:47:50.865Z,3.13
2018-11-01T20:52:45.803Z,3.53
2018-11-01T20:57:40.812Z,3.70
2018-11-01T21:02:36.127Z,3.47
2018-11-01T21:07:31.040Z,3.33
2018-11-01T21:12:26.176Z,3.23
2018-11-01T21:17:21.477Z,3.00
2018-11-01T21:22:16.373Z,2.53
2018-11-01T21:27:11.577Z,2.90
2018-11-01T21:32:07.730Z,2.70
2018-11-01T21:37:02.619Z,2.30
2018-11-01T21:41:57.875Z,2.50
2018-11-01T21:46:52.839Z,2.30
2018-11-01T21:51:48.156Z,2.40
2018-11-01T21:56:43.056Z,3.97
2018-11-01T22:01:37.929Z,5.80
2018-11-01T22:06:32.943Z,5.97
2018-11-01T22:11:27.887Z,5.90
2018-11-01T22:16:22.807Z,4.97
2018-11-01T22:21:17.930Z,4.13
2018-11-01T22:26:13.667Z,4.90
2018-11-01T22:31:08.699Z,4.10
2018-11-01T22:36:03.687Z,4.00
2018-11-01T22:40:58.584Z,4.13
2018-11-01T22:45:53.480Z,3.53
2018-11-01T22:50:48.456Z,3.63
2018-11-01T22:55:43.710Z,3.30
2018-11-01T23:00:42.940Z,3.90
2018-11-01T23:05:37.855Z,3.63
2018-11-01T23:10:32.821Z,3.53
2018-11-01T23:15:27.718Z,3.37
2018-11-01T23:20:22.598Z,3.20
2018-11-01T23:25:17.560Z,3.60
2018-11-01T23:30:12.548Z,3.77
2018-11-01T23:35:07.756Z,3.37
2018-11-01T23:40:07.663Z,3.70
2018-11-01T23:45:07.513Z,3.83
2018-11-01T23:50:07.261Z,3.47
2018-11-01T23:55:02.237Z,4.37
2018-11-01T23:59:57.148Z,3.53
